Upper Jay, New York
Current Conditions -  °F | °C
As of 2:51 PM on Thursday 29 Jan 2015 (Local Time) from KSLK Reporting Station
Overcast Overcast  
Wind Chill: 29°   Ceiling: 8500
Heat Index: 35°   Visibility: 10mi
Dew Point:   Wind: 7mph
Humidity: 23%   Direction: 180°S
Pressure: 29.86"   Gusts: NA
Location:  44.34°N, 73.78°W
Report Text: KSLK 291951Z AUTO 18006KT 10SM OVC085 02/M18 A2986 RMK AO2 SLP147 T00171178
Loading
Personal Weather Stations






























Interactive Weather Map New forecast layout! Learn more

10-Day Weather Forecast

Advertisements
Track Severe Weather on mobile